Time;durP1;ratioP1;P1;durP2;ratioP2;P2;SDS_P1;SDS_P2;PMS_P1;PMS_P2;Temp;Humidity;BMP_temperature;BMP_pressure;BME280_temperature;BME280_humidity;BME280_pressure;Samples;Min_cycle;Max_cycle;Signal;HPM_P1;HPM_P2
2022/04/05 00:00:14;;;;;;;;;;;103.00;2227.20;;;;;;5013168;28;20034;-77
2022/04/05 00:02:40;;;;;;;;;;;103.00;2227.20;;;;;;5013623;28;19910;-78
2022/04/05 00:05:06;;;;;;;16.67;10.02;;;103.00;2227.20;;;;;;5012729;28;19960;-78
2022/04/05 00:07:32;;;;;;;18.08;9.93;;;102.90;2227.20;;;;;;5011795;28;20030;-78
2022/04/05 00:09:57;;;;;;;;;;;103.00;2227.20;;;;;;5012818;28;20113;-78
2022/04/05 00:12:23;;;;;;;16.85;10.45;;;102.90;2227.20;;;;;;5013182;28;20316;-78
2022/04/05 00:14:49;;;;;;;;;;;102.90;2227.20;;;;;;5013208;28;20116;-85
2022/04/05 00:17:15;;;;;;;19.55;10.68;;;102.90;2227.20;;;;;;5012618;28;19928;-78
2022/04/05 00:19:41;;;;;;;;;;;102.80;2227.20;;;;;;5013194;28;20516;-78
2022/04/05 00:22:07;;;;;;;21.25;10.75;;;102.80;2227.20;;;;;;5012584;28;20365;-78
2022/04/05 00:24:32;;;;;;;;;;;102.70;2227.20;;;;;;5013041;28;20034;-78
2022/04/05 00:26:58;;;;;;;17.83;10.30;;;102.80;2227.20;;;;;;5012609;28;19975;-77
2022/04/05 00:29:24;;;;;;;;;;;102.80;2227.20;;;;;;5012898;28;20026;-78
2022/04/05 00:31:50;;;;;;;18.80;9.82;;;102.80;2227.20;;;;;;4996028;28;19975;-79
2022/04/05 00:34:16;;;;;;;17.50;10.32;;;102.80;2227.20;;;;;;5012918;28;20034;-77
2022/04/05 00:36:42;;;;;;;;;;;102.80;2227.20;;;;;;5012973;28;20029;-77
2022/04/05 00:39:09;;;;;;;22.33;10.68;;;102.80;2227.20;;;;;;5013596;28;20332;-78
2022/04/05 00:41:35;;;;;;;20.23;11.10;;;102.80;2227.20;;;;;;5012294;28;20030;-77
2022/04/05 00:44:01;;;;;;;;;;;102.80;2227.20;;;;;;5013211;28;20034;-78
2022/04/05 00:46:26;;;;;;;18.73;11.35;;;102.80;2227.20;;;;;;5012244;28;19959;-78
2022/04/05 00:48:55;;;;;;;;;;;102.70;2227.20;;;;;;5012883;28;20041;-77
2022/04/05 00:51:22;;;;;;;24.48;12.93;;;102.80;2227.20;;;;;;5012649;28;19992;-78
2022/04/05 00:53:53;;;;;;;21.02;11.95;;;102.70;2227.20;;;;;;5011742;28;20030;-78
2022/04/05 00:56:21;;;;;;;20.23;11.95;;;102.70;2227.20;;;;;;5011965;28;20200;-78
2022/04/05 00:58:49;;;;;;;23.75;14.10;;;102.80;2227.20;;;;;;5012318;28;20026;-78
2022/04/05 01:01:18;;;;;;;26.05;13.60;;;102.70;2227.20;;;;;;5012152;28;20042;-77
2022/04/05 01:03:51;;;;;;;23.02;13.57;;;102.80;2227.20;;;;;;5012055;28;20026;-78
2022/04/05 01:06:17;;;;;;;29.00;14.10;;;102.90;2227.20;;;;;;5012221;28;20056;-77
2022/04/05 01:08:46;;;;;;;29.27;14.70;;;102.70;2227.20;;;;;;5013217;28;20045;-78
2022/04/05 01:11:12;;;;;;;25.33;13.50;;;102.70;2227.20;;;;;;5012081;28;20030;-78
2022/04/05 01:13:37;;;;;;;;;;;102.70;2227.20;;;;;;5013894;28;20532;-85
2022/04/05 01:16:03;;;;;;;27.60;13.60;;;102.50;2227.20;;;;;;5011915;28;19905;-78
2022/04/05 01:18:29;;;;;;;;;;;102.50;2227.20;;;;;;5014539;28;20018;-78
2022/04/05 01:20:56;;;;;;;28.70;14.50;;;102.40;2227.20;;;;;;5014978;28;20389;-78
2022/04/05 01:23:22;;;;;;;31.38;14.70;;;102.40;2227.20;;;;;;5015425;28;20026;-78
2022/04/05 01:25:49;;;;;;;28.15;13.90;;;77.70;2227.20;;;;;;5015421;28;20073;-78
2022/04/05 01:28:15;;;;;;;27.77;15.07;;;77.70;2227.20;;;;;;5015151;28;20026;-78
2022/04/05 01:30:40;;;;;;;;;;;77.70;2227.20;;;;;;5015915;28;20033;-78
2022/04/05 01:33:07;;;;;;;28.55;15.43;;;102.40;2227.20;;;;;;5015394;28;19912;-77
2022/04/05 01:35:34;;;;;;;30.00;15.00;;;102.40;2227.20;;;;;;5014838;28;20026;-77
2022/04/05 01:38:02;;;;;;;27.58;15.30;;;77.50;2227.20;;;;;;5015209;28;20096;-78
2022/04/05 01:40:28;;;;;;;28.80;16.08;;;102.40;2227.20;;;;;;5014971;28;20092;-77
2022/04/05 01:42:54;;;;;;;;;;;102.50;2227.20;;;;;;5015589;28;20026;-78
2022/04/05 01:45:19;;;;;;;29.40;16.35;;;102.50;2227.20;;;;;;5014919;28;19915;-77
2022/04/05 01:47:45;;;;;;;;;;;102.40;2227.20;;;;;;5015408;28;20117;-77
2022/04/05 01:50:11;;;;;;;29.48;15.95;;;102.50;2227.20;;;;;;5016035;28;19905;-78
2022/04/05 01:52:36;;;;;;;;;;;102.40;2227.20;;;;;;5014967;28;20037;-78
2022/04/05 01:55:03;;;;;;;32.13;15.77;;;77.70;2227.20;;;;;;5014880;28;19967;-77
2022/04/05 01:57:29;;;;;;;33.42;17.33;;;102.40;2227.20;;;;;;5014808;28;20030;-78
2022/04/05 01:59:55;;;;;;;;;;;102.40;2227.20;;;;;;5014928;28;20038;-77
2022/04/05 02:02:21;;;;;;;32.15;17.35;;;102.40;2227.20;;;;;;5014984;28;19912;-78
2022/04/05 02:04:46;;;;;;;;;;;102.40;2227.20;;;;;;5015197;28;20034;-78
2022/04/05 02:07:15;;;;;;;32.67;16.70;;;102.50;2227.20;;;;;;5014709;28;20353;-78
2022/04/05 02:09:41;;;;;;;29.27;17.20;;;102.50;2227.20;;;;;;5015025;28;20551;-78
2022/04/05 02:12:07;;;;;;;;;;;102.50;2227.20;;;;;;5014967;28;20034;-77
2022/04/05 02:14:32;;;;;;;35.25;18.02;;;102.50;2227.20;;;;;;5014668;28;20425;-78
2022/04/05 02:16:58;;;;;;;;;;;102.50;2227.20;;;;;;5014797;28;20060;-86
2022/04/05 02:19:24;;;;;;;37.88;18.92;;;102.50;2227.20;;;;;;5014235;28;19909;-77
2022/04/05 02:21:50;;;;;;;29.95;17.52;;;102.60;2227.20;;;;;;5014422;28;20029;-77
2022/04/05 02:24:15;;;;;;;;;;;102.40;2227.20;;;;;;5014787;28;20034;-78
2022/04/05 02:26:41;;;;;;;39.30;17.92;;;102.40;2227.20;;;;;;5014549;28;20277;-77
2022/04/05 02:29:07;;;;;;;;;;;102.40;2227.20;;;;;;5014506;28;20167;-78
2022/04/05 02:31:33;;;;;;;35.03;18.30;;;102.40;2227.20;;;;;;5013365;28;19909;-78
2022/04/05 02:33:58;;;;;;;;;;;102.40;2227.20;;;;;;5015730;28;20511;-78
2022/04/05 02:36:24;;;;;;;35.88;17.88;;;102.40;2227.20;;;;;;5014864;28;19936;-84
2022/04/05 02:38:50;;;;;;;27.13;16.67;;;102.40;2227.20;;;;;;5014148;28;20036;-79
2022/04/05 02:41:16;;;;;;;;;;;102.50;2227.20;;;;;;5015471;28;20034;-77
2022/04/05 02:43:42;;;;;;;33.95;18.25;;;102.60;2227.20;;;;;;5013925;28;20384;-78
2022/04/05 02:46:10;;;;;;;;;;;102.60;2227.20;;;;;;5015067;28;20443;-77
2022/04/05 02:48:43;;;;;;;38.05;19.90;;;102.80;2227.20;;;;;;5014002;28;19967;-78
2022/04/05 02:51:11;;;;;;;44.25;20.38;;;102.80;2227.20;;;;;;5013796;28;20022;-78
2022/04/05 02:53:36;;;;;;;44.90;21.90;;;102.70;2227.20;;;;;;5013605;28;20026;-77
2022/04/05 02:56:02;;;;;;;;;;;102.60;2227.20;;;;;;5013886;28;20089;-81
2022/04/05 02:58:28;;;;;;;34.92;20.00;;;77.70;2227.20;;;;;;5013765;28;19906;-78
2022/04/05 03:00:54;;;;;;;34.45;18.60;;;77.60;2227.20;;;;;;5014598;28;20561;-78
2022/04/05 03:03:20;;;;;;;;;;;77.70;2227.20;;;;;;5014008;28;20124;-77
2022/04/05 03:05:45;;;;;;;32.30;18.55;;;102.50;2227.20;;;;;;5014710;28;19906;-77
2022/04/05 03:08:11;;;;;;;;;;;102.50;2227.20;;;;;;5015161;28;20053;-82
2022/04/05 03:10:37;;;;;;;29.77;17.35;;;102.70;2227.20;;;;;;5013505;28;19905;-78
2022/04/05 03:13:03;;;;;;;;;;;102.50;2227.20;;;;;;5014192;28;20029;-78
2022/04/05 03:15:29;;;;;;;33.03;18.83;;;102.40;2227.20;;;;;;5013626;28;19905;-78
2022/04/05 03:17:55;;;;;;;;;;;102.40;2227.20;;;;;;5013707;28;20036;-77
2022/04/05 03:20:21;;;;;;;35.58;18.35;;;102.40;2227.20;;;;;;5013033;28;19914;-78
2022/04/05 03:22:47;;;;;;;;;;;102.40;2227.20;;;;;;5013818;28;20057;-76
2022/04/05 03:25:13;;;;;;;31.52;18.80;;;102.40;2227.20;;;;;;5013870;28;20352;-77
2022/04/05 03:27:40;;;;;;;;;;;102.50;2227.20;;;;;;5013624;28;20475;-85
2022/04/05 03:30:10;;;;;;;35.80;18.95;;;102.50;2227.20;;;;;;5014351;28;19991;-78
2022/04/05 03:32:37;;;;;;;36.10;20.13;;;77.70;2227.20;;;;;;5010438;28;20029;-78
2022/04/05 03:35:04;;;;;;;41.33;22.20;;;102.40;2227.20;;;;;;5013025;28;20072;-77
2022/04/05 03:37:30;;;;;;;38.08;21.58;;;77.70;2227.20;;;;;;5013049;28;20477;-78
2022/04/05 03:39:55;;;;;;;;;;;77.70;2227.20;;;;;;5013276;28;20044;-77
2022/04/05 03:42:21;;;;;;;46.22;21.95;;;102.40;2227.20;;;;;;5012908;28;19914;-77
2022/04/05 03:44:47;;;;;;;;;;;102.50;2227.20;;;;;;5013415;28;20054;-78
2022/04/05 03:47:13;;;;;;;43.75;22.20;;;102.50;2227.20;;;;;;5013278;28;20281;-80
2022/04/05 03:49:38;;;;;;;;;;;77.70;2227.20;;;;;;5013551;28;20099;-77
2022/04/05 03:52:04;;;;;;;50.40;22.98;;;77.70;2227.20;;;;;;5013093;28;19905;-78
2022/04/05 03:54:30;;;;;;;;;;;77.60;2227.20;;;;;;5012937;28;20145;-79
2022/04/05 03:56:56;;;;;;;46.00;25.10;;;77.60;2227.20;;;;;;5012824;28;19999;-78
2022/04/05 03:59:21;;;;;;;;;;;77.60;2227.20;;;;;;5013137;28;20033;-78
2022/04/05 04:01:47;;;;;;;45.42;22.70;;;77.60;2227.20;;;;;;5012758;28;19942;-77
2022/04/05 04:04:13;;;;;;;;;;;77.50;2227.20;;;;;;5013307;28;20033;-78
2022/04/05 04:06:38;;;;;;;39.70;23.40;;;77.40;2227.20;;;;;;5013283;28;19912;-78
2022/04/05 04:09:04;;;;;;;;;;;77.60;2227.20;;;;;;5013132;28;20022;-78
2022/04/05 04:11:30;;;;;;;49.47;26.48;;;102.60;2227.20;;;;;;5012615;28;19936;-81
2022/04/05 04:13:56;;;;;;;;;;;77.60;2227.20;;;;;;5013145;28;20081;-78
2022/04/05 04:16:22;;;;;;;43.60;22.90;;;77.60;2227.20;;;;;;5013751;28;19905;-85
2022/04/05 04:18:47;;;;;;;;;;;102.40;2227.20;;;;;;5014322;28;20049;-78
2022/04/05 04:21:13;;;;;;;41.45;23.63;;;102.50;2227.20;;;;;;5012388;28;19913;-76
2022/04/05 04:23:39;;;;;;;;;;;102.60;2227.20;;;;;;5013093;28;20041;-76
2022/04/05 04:26:05;;;;;;;43.63;24.27;;;102.60;2227.20;;;;;;5012517;28;19910;-77
2022/04/05 04:28:31;;;;;;;;;;;102.60;2227.20;;;;;;5013033;28;20037;-76
2022/04/05 04:30:57;;;;;;;49.33;27.23;;;102.70;2227.20;;;;;;5012587;28;19913;-77
2022/04/05 04:33:23;;;;;;;;;;;102.80;2227.20;;;;;;5012763;28;20054;-77
2022/04/05 04:35:49;;;;;;;61.33;30.98;;;102.70;2227.20;;;;;;5012286;28;19960;-76
2022/04/05 04:38:15;;;;;;;51.03;28.27;;;102.80;2227.20;;;;;;5013543;28;20390;-76
2022/04/05 04:40:48;;;;;;;59.78;31.00;;;102.90;2227.20;;;;;;5012300;28;20045;-75
2022/04/05 04:43:15;;;;;;;55.75;30.27;;;102.80;2227.20;;;;;;5012596;28;20492;-76
2022/04/05 04:45:41;;;;;;;52.15;27.05;;;103.00;2227.20;;;;;;5013663;28;20026;-76
2022/04/05 04:48:07;;;;;;;;;;;103.00;2227.20;;;;;;5013781;28;20110;-77
2022/04/05 04:50:33;;;;;;;48.00;24.58;;;103.10;2227.20;;;;;;5011746;28;19909;-76
2022/04/05 04:52:58;;;;;;;;;;;103.20;2227.20;;;;;;5013258;28;20042;-76
2022/04/05 04:55:25;;;;;;;46.88;25.65;;;103.20;2227.20;;;;;;5016917;28;19922;-76
2022/04/05 04:57:51;;;;;;;50.58;26.27;;;103.20;2227.20;;;;;;5017512;28;20025;-76
2022/04/05 05:00:17;;;;;;;48.13;25.70;;;103.30;2227.20;;;;;;5016799;28;20087;-77
2022/04/05 05:02:49;;;;;;;40.75;24.27;;;103.30;2227.20;;;;;;5015521;28;20071;-75
2022/04/05 05:05:19;;;;;;;50.38;26.70;;;128.00;2252.80;;;;;;5015445;28;20036;-77
2022/04/05 05:07:47;;;;;;;45.33;25.25;;;103.30;2227.20;;;;;;5017221;28;20018;-77
2022/04/05 05:10:14;;;;;;;47.78;25.52;;;128.00;2252.80;;;;;;5015986;28;20033;-76
2022/04/05 05:12:42;;;;;;;50.38;26.77;;;128.20;2252.80;;;;;;5015695;28;20050;-76
2022/04/05 05:15:10;;;;;;;47.60;23.85;;;128.10;2252.80;;;;;;5015665;28;20049;-76
2022/04/05 05:17:36;;;;;;;47.60;25.63;;;128.10;2252.80;;;;;;5015493;28;20025;-85
2022/04/05 05:20:06;;;;;;;50.33;26.45;;;128.10;2252.80;;;;;;5015101;28;20041;-78
2022/04/05 05:22:32;;;;;;;42.85;24.88;;;128.20;2252.80;;;;;;5014813;28;20116;-76
2022/04/05 05:24:58;;;;;;;49.65;27.27;;;128.30;2252.80;;;;;;5015389;28;20038;-76
2022/04/05 05:27:24;;;;;;;;;;;128.50;2252.80;;;;;;5015751;28;20022;-76
2022/04/05 05:29:49;;;;;;;44.50;26.42;;;128.50;2252.80;;;;;;5015451;28;19913;-76
2022/04/05 05:32:15;;;;;;;;;;;128.50;2252.80;;;;;;5015589;28;20104;-76
2022/04/05 05:34:41;;;;;;;44.58;26.40;;;128.50;2252.80;;;;;;5014453;28;19912;-78
2022/04/05 05:37:08;;;;;;;;;;;128.50;2252.80;;;;;;5015632;28;20030;-76
2022/04/05 05:39:36;;;;;;;52.72;25.67;;;128.70;2252.80;;;;;;5015179;28;20020;-83
2022/04/05 05:42:06;;;;;;;50.72;26.15;;;128.80;2252.80;;;;;;5016410;28;20033;-77
2022/04/05 05:44:33;;;;;;;44.47;26.95;;;128.80;2252.80;;;;;;5015307;28;20030;-81
2022/04/05 05:47:00;;;;;;;42.33;25.33;;;128.90;2252.80;;;;;;5015333;28;20037;-80
2022/04/05 05:49:26;;;;;;;52.00;26.02;;;128.90;2252.80;;;;;;5015701;28;20518;-79
2022/04/05 05:51:51;;;;;;;;;;;153.70;2252.80;;;;;;5016858;28;20053;-78
2022/04/05 05:54:18;;;;;;;47.47;25.42;;;153.80;2252.80;;;;;;5015240;28;20297;-82
2022/04/05 05:56:43;;;;;;;45.42;25.55;;;153.90;2252.80;;;;;;5015454;28;20022;-79
2022/04/05 05:59:11;;;;;;;;;;;154.00;2252.80;;;;;;5016282;28;20022;-78
2022/04/05 06:01:37;;;;;;;37.65;18.25;;;154.10;2252.80;;;;;;5009075;28;19920;-77
2022/04/05 06:04:03;;;;;;;51.28;25.80;;;154.10;2252.80;;;;;;5004422;28;20764;-77
2022/04/05 06:06:31;;;;;;;;;;;154.20;2252.80;;;;;;5004621;28;20048;-76
2022/04/05 06:08:58;;;;;;;39.05;23.17;;;154.40;2252.80;;;;;;5000519;28;19975;-77
2022/04/05 06:11:24;;;;;;;41.47;25.88;;;179.20;2252.80;;;;;;4995480;28;20068;-76
2022/04/05 06:13:51;;;;;;;43.17;25.95;;;179.30;2252.80;;;;;;4995182;28;20033;-78
2022/04/05 06:16:18;;;;;;;40.13;25.10;;;179.40;2252.80;;;;;;4994622;28;20032;-78
2022/04/05 06:18:47;;;;;;;44.83;24.05;;;179.50;2252.80;;;;;;4994998;28;20081;-76
2022/04/05 06:21:15;;;;;;;45.00;26.88;;;179.70;2252.80;;;;;;4994702;28;20081;-78
2022/04/05 06:23:41;;;;;;;155.55;83.25;;;179.80;2252.80;;;;;;4994710;28;20030;-78
2022/04/05 06:26:07;;;;;;;;;;;179.90;2252.80;;;;;;4995307;28;20505;-76
2022/04/05 06:28:33;;;;;;;47.17;25.70;;;180.00;2252.80;;;;;;4995843;28;19961;-77
2022/04/05 06:30:58;;;;;;;;;;;180.10;2252.80;;;;;;4996263;28;20490;-76
2022/04/05 06:33:24;;;;;;;41.30;23.88;;;180.10;2252.80;;;;;;4995399;28;19906;-77
2022/04/05 06:35:56;;;;;;;;;;;204.80;2252.80;;;;;;4997645;28;20042;-78
2022/04/05 06:38:22;;;;;;;38.75;19.30;;;204.90;2252.80;;;;;;4995090;28;20346;-80
2022/04/05 06:40:48;;;;;;;38.35;20.48;;;205.00;2252.80;;;;;;4994497;28;20050;-77
2022/04/05 06:43:16;;;;;;;31.52;18.85;;;205.10;2252.80;;;;;;4994924;28;20046;-77
2022/04/05 06:45:42;;;;;;;33.83;18.88;;;205.20;2252.80;;;;;;4994417;28;20057;-78
2022/04/05 06:48:09;;;;;;;34.75;18.83;;;205.30;2252.80;;;;;;4994678;28;20030;-76
2022/04/05 06:50:36;;;;;;;30.98;18.27;;;205.50;2252.80;;;;;;4995894;28;20065;-78
2022/04/05 06:53:03;;;;;;;30.27;18.00;;;205.60;2252.80;;;;;;4994422;28;20030;-78
2022/04/05 06:55:29;;;;;;;29.67;18.05;;;205.70;2252.80;;;;;;4994126;28;20083;-78
2022/04/05 06:57:54;;;;;;;;;;;230.60;2252.80;;;;;;4994800;28;20498;-81
2022/04/05 07:00:23;;;;;;;25.95;14.75;;;230.70;2252.80;;;;;;4994247;28;20040;-79
2022/04/05 07:02:51;;;;;;;26.85;15.98;;;230.80;2252.80;;;;;;4994302;28;20018;-78
2022/04/05 07:05:17;;;;;;;26.98;16.85;;;231.00;2252.80;;;;;;4994189;28;20109;-82
2022/04/05 07:07:43;;;;;;;26.83;15.15;;;231.20;2252.80;;;;;;4994359;28;20018;-76
2022/04/05 07:10:10;;;;;;;;;;;256.00;2252.80;;;;;;4994829;28;20022;-79
2022/04/05 07:12:36;;;;;;;25.45;14.25;;;256.30;2252.80;;;;;;4994869;28;20359;-80
2022/04/05 07:15:04;;;;;;;37.28;22.65;;;256.40;2252.80;;;;;;4994733;28;20026;-77
2022/04/05 07:17:29;;;;;;;34.13;18.33;;;256.60;2252.80;;;;;;4993607;28;20040;-81
2022/04/05 07:19:55;;;;;;;25.65;14.68;;;256.80;2252.80;;;;;;4994084;28;20132;-81
2022/04/05 07:22:21;;;;;;;20.63;13.63;;;281.60;2278.40;;;;;;4993859;28;20068;-80
2022/04/05 07:24:47;;;;;;;;;;;281.70;2176.00;;;;;;4994847;28;20038;-78
2022/04/05 07:27:14;;;;;;;17.67;11.43;;;281.90;2176.00;;;;;;4994095;28;19906;-80
2022/04/05 07:29:40;;;;;;;17.65;11.10;;;281.90;2150.40;;;;;;4993863;28;20026;-77
2022/04/05 07:32:07;;;;;;;14.80;9.52;;;282.10;2022.40;;;;;;4993569;28;20616;-76
2022/04/05 07:34:33;;;;;;;12.23;7.55;;;282.30;2022.40;;;;;;4993813;28;20035;-75
2022/04/05 07:36:59;;;;;;;12.68;7.10;;;282.30;1945.60;;;;;;4994721;28;20372;-76
2022/04/05 07:39:25;;;;;;;;;;;282.50;1920.00;;;;;;4993720;28;20022;-76
2022/04/05 07:41:51;;;;;;;4.97;2.80;;;307.30;1817.60;;;;;;4993461;28;19921;-75
2022/04/05 07:44:17;;;;;;;5.13;3.63;;;307.40;1740.80;;;;;;4993412;28;20037;-76
2022/04/05 07:46:43;;;;;;;6.90;3.50;;;307.50;1689.60;;;;;;4993210;28;20022;-76
2022/04/05 07:49:08;;;;;;;4.85;2.50;;;307.70;1689.60;;;;;;4997075;28;20040;-75
2022/04/05 07:51:34;;;;;;;5.78;2.85;;;307.70;1638.40;;;;;;5001290;28;20431;-76
2022/04/05 07:54:00;;;;;;;6.85;3.75;;;307.90;1664.00;;;;;;5003422;28;20042;-79
2022/04/05 07:56:26;;;;;;;5.97;3.67;;;307.90;1612.80;;;;;;5003379;28;20033;-80
2022/04/05 07:58:52;;;;;;;7.53;3.53;;;308.00;1638.40;;;;;;4998730;28;20516;-77
2022/04/05 08:01:18;;;;;;;4.72;2.70;;;308.10;1638.40;;;;;;4993122;28;20088;-77
2022/04/05 08:03:44;;;;;;;4.93;2.38;;;308.10;1612.80;;;;;;4992932;28;20026;-78
2022/04/05 08:06:10;;;;;;;6.15;2.88;;;332.80;1612.80;;;;;;4996660;28;20026;-76
2022/04/05 08:08:35;;;;;;;4.85;2.90;;;332.90;1612.80;;;;;;4992745;28;20463;-77
2022/04/05 08:11:01;;;;;;;4.35;3.10;;;332.90;1587.20;;;;;;4992223;28;20049;-78
2022/04/05 08:13:27;;;;;;;;;;;333.00;1612.80;;;;;;4993231;28;20022;-78
2022/04/05 08:15:54;;;;;;;6.78;2.90;;;333.00;1587.20;;;;;;4994141;28;19906;-76
2022/04/05 08:18:20;;;;;;;4.38;2.80;;;333.00;1587.20;;;;;;4994103;28;20026;-76
2022/04/05 08:20:46;;;;;;;7.47;3.17;;;333.00;1587.20;;;;;;4994328;28;20113;-83
2022/04/05 08:23:11;;;;;;;5.93;2.65;;;333.20;1587.20;;;;;;4992546;28;20058;-83
2022/04/05 08:25:37;;;;;;;4.07;2.30;;;333.20;1561.60;;;;;;4993119;28;20442;-82
2022/04/05 08:28:04;;;;;;;8.40;2.75;;;333.30;1561.60;;;;;;4993487;28;20182;-82
2022/04/05 08:30:30;;;;;;;6.78;3.20;;;333.30;1510.40;;;;;;5001378;28;20124;-77
2022/04/05 08:32:57;;;;;;;4.45;2.72;;;333.30;1484.80;;;;;;5008011;28;20114;-76
2022/04/05 08:35:23;;;;;;;5.43;2.58;;;333.30;1510.40;;;;;;5009973;28;20044;-80
2022/04/05 08:37:51;;;;;;;5.75;2.38;;;333.30;1484.80;;;;;;5009499;28;20032;-76
2022/04/05 08:40:19;;;;;;;4.40;2.10;;;333.30;1484.80;;;;;;5016383;28;20057;-78
2022/04/05 08:42:48;;;;;;;5.55;2.08;;;333.30;1484.80;;;;;;5016303;28;20478;-77
2022/04/05 08:45:16;;;;;;;4.45;2.30;;;333.40;1484.80;;;;;;5016700;28;20030;-77
2022/04/05 08:47:52;;;;;;;6.75;2.17;;;333.40;1459.20;;;;;;5016450;28;20030;-78
2022/04/05 08:50:20;;;;;;;6.60;2.58;;;333.50;1484.80;;;;;;5016142;28;20033;-78
2022/04/05 08:52:46;;;;;;;4.85;3.03;;;333.50;1484.80;;;;;;5004899;28;20058;-77
2022/04/05 08:55:14;;;;;;;12.15;7.35;;;333.60;1484.80;;;;;;5006718;28;20049;-76
2022/04/05 08:57:39;;;;;;;6.93;4.38;;;333.50;1510.40;;;;;;5007411;28;20502;-77
2022/04/05 09:00:08;;;;;;;7.55;4.13;;;333.60;1536.00;;;;;;5005475;28;20061;-80
2022/04/05 09:02:35;;;;;;;9.77;3.72;;;333.70;1561.60;;;;;;5004453;28;20049;-79
2022/04/05 09:05:01;;;;;;;6.60;3.72;;;358.40;1536.00;;;;;;5015939;28;20510;-78
2022/04/05 09:07:32;;;;;;;7.50;3.05;;;358.40;1484.80;;;;;;5017052;28;20033;-81
2022/04/05 09:10:17;;;;;;;6.03;3.20;;;358.50;1510.40;;;;;;5015780;28;20029;-82
2022/04/05 09:12:44;;;;;;;5.75;3.47;;;358.50;1484.80;;;;;;5016047;28;20395;-82
2022/04/05 09:15:23;;;;;;;4.18;2.35;;;358.50;1459.20;;;;;;5016128;28;20018;-84
2022/04/05 09:17:49;;;;;;;9.43;3.80;;;358.50;1459.20;;;;;;5016211;28;20038;-82
2022/04/05 09:20:18;;;;;;;6.63;4.18;;;358.70;1510.40;;;;;;5016389;28;20036;-77
2022/04/05 09:22:44;;;;;;;9.77;4.70;;;358.80;1459.20;;;;;;5009201;28;20467;-77
2022/04/05 09:25:15;;;;;;;5.45;3.25;;;358.90;1484.80;;;;;;4997125;28;20105;-79
2022/04/05 09:27:56;;;;;;;6.95;3.45;;;358.90;1459.20;;;;;;4995912;28;20129;-76
2022/04/05 09:30:24;;;;;;;6.45;3.42;;;359.00;1433.60;;;;;;4995287;28;20379;-74
2022/04/05 09:32:52;;;;;;;7.50;3.63;;;359.10;1433.60;;;;;;4996906;28;20026;-75
2022/04/05 09:35:39;;;;;;;7.78;3.22;;;359.20;1408.00;;;;;;4995029;28;20027;-76
2022/04/05 09:38:12;;;;;;;6.05;3.88;;;359.30;1433.60;;;;;;4996401;28;20018;-77
2022/04/05 09:40:38;;;;;;;6.55;3.88;;;359.30;1408.00;;;;;;4995309;28;20034;-77
2022/04/05 09:43:14;;;;;;;6.90;4.28;;;384.00;1408.00;;;;;;4995656;28;20026;-76
2022/04/05 09:45:53;;;;;;;4.85;2.97;;;384.10;1408.00;;;;;;4995367;28;20030;-77
2022/04/05 09:48:34;;;;;;;7.20;3.28;;;384.30;1382.40;;;;;;4995754;28;20027;-76
2022/04/05 09:51:12;;;;;;;9.02;3.50;;;384.40;1356.80;;;;;;4995568;28;20030;-81
2022/04/05 09:53:51;;;;;;;9.20;3.13;;;384.60;1356.80;;;;;;4995308;28;20030;-77
2022/04/05 09:56:18;;;;;;;7.50;3.60;;;384.70;1331.20;;;;;;4996405;28;20049;-81
2022/04/05 09:58:51;;;;;;;7.97;4.47;;;384.90;1305.60;;;;;;4995032;28;20101;-83
2022/04/05 10:01:18;;;;;;;25.77;12.55;;;384.90;1305.60;;;;;;4995222;28;20098;-76
2022/04/05 10:04:09;;;;;;;12.43;6.90;;;409.60;1356.80;;;;;;4995459;28;20073;-80
2022/04/05 10:06:43;;;;;;;4.65;2.60;;;409.70;1305.60;;;;;;4995114;28;20019;-77
2022/04/05 10:09:09;;;;;;;7.10;4.13;;;409.90;1305.60;;;;;;4996120;28;20037;-79
2022/04/05 10:11:37;;;;;;;6.85;3.97;;;410.00;1305.60;;;;;;4995094;28;20077;-77
2022/04/05 10:14:04;;;;;;;6.63;3.30;;;410.20;1280.00;;;;;;4994826;28;20029;-82
2022/04/05 10:16:32;;;;;;;7.43;4.10;;;410.30;1305.60;;;;;;4996198;28;20027;-83
2022/04/05 10:19:00;;;;;;;5.97;3.67;;;410.50;1254.40;;;;;;4994780;28;20030;-78
2022/04/05 10:21:34;;;;;;;15.20;5.05;;;435.20;1254.40;;;;;;4995442;28;20122;-82
2022/04/05 10:24:01;;;;;;;4.20;2.63;;;;;;;;;;4994965;28;20026;-77
2022/04/05 10:26:38;;;;;;;4.50;2.70;;;435.30;1254.40;;;;;;5002975;28;20387;-80
2022/04/05 10:29:09;;;;;;;6.05;3.00;;;435.50;1280.00;;;;;;5004245;28;20077;-83
2022/04/05 10:32:06;;;;;;;6.97;2.80;;;435.70;1228.80;;;;;;5005974;28;20026;-80
2022/04/05 10:34:42;;;;;;;5.30;2.78;;;435.90;1228.80;;;;;;5003308;28;20483;-78
2022/04/05 10:37:10;;;;;;;5.38;3.05;;;460.80;1254.40;;;;;;5005387;28;20101;-77
2022/04/05 10:39:37;;;;;;;6.80;3.67;;;460.90;1228.80;;;;;;5002041;28;20378;-78
2022/04/05 10:42:09;;;;;;;5.50;2.70;;;460.80;1254.40;;;;;;5005345;28;20076;-79
2022/04/05 10:44:36;;;;;;;6.38;2.58;;;461.00;1228.80;;;;;;5012271;28;20036;-79
2022/04/05 10:47:06;;;;;;;6.45;3.60;;;461.10;1203.20;;;;;;5013851;28;20022;-79
2022/04/05 10:49:43;;;;;;;5.50;3.10;;;461.20;1228.80;;;;;;5013648;28;20430;-81
2022/04/05 10:52:27;;;;;;;5.88;2.75;;;461.10;1203.20;;;;;;5012183;28;20113;-77
2022/04/05 10:55:02;;;;;;;6.68;2.92;;;461.30;1203.20;;;;;;5013382;28;20049;-82
2022/04/05 10:57:32;;;;;;;5.13;2.50;;;461.50;1203.20;;;;;;5013887;28;20065;-83
2022/04/05 11:00:07;;;;;;;4.10;2.58;;;461.50;1152.00;;;;;;5013416;28;20036;-77
2022/04/05 11:02:40;;;;;;;5.25;2.90;;;461.40;1152.00;;;;;;5013346;28;20030;-77
2022/04/05 11:05:15;;;;;;;5.60;3.42;;;461.50;1126.40;;;;;;5013650;28;20030;-80
2022/04/05 11:07:59;;;;;;;4.97;2.70;;;461.70;1152.00;;;;;;5013740;28;20502;-80
2022/04/05 11:10:36;;;;;;;8.10;2.80;;;486.40;1152.00;;;;;;5013439;28;20026;-85
2022/04/05 11:13:14;;;;;;;5.72;3.00;;;486.40;1152.00;;;;;;5013285;28;20494;-77
2022/04/05 11:15:40;;;;;;;8.07;3.78;;;486.40;1152.00;;;;;;5007286;28;20104;-82
2022/04/05 11:18:07;;;;;;;7.22;4.45;;;486.40;1152.00;;;;;;5003900;28;20033;-76
2022/04/05 11:20:35;;;;;;;5.95;3.33;;;486.50;1152.00;;;;;;5002510;28;20498;-77
2022/04/05 11:23:01;;;;;;;8.38;3.42;;;486.60;1152.00;;;;;;5002555;28;20044;-76
2022/04/05 11:25:29;;;;;;;6.55;3.72;;;486.70;1126.40;;;;;;5003797;28;20417;-85
2022/04/05 11:28:08;;;;;;;5.10;3.45;;;486.70;1126.40;;;;;;5004139;28;20018;-77
2022/04/05 11:30:54;;;;;;;11.65;3.83;;;486.70;1126.40;;;;;;5012275;28;20459;-77
2022/04/05 11:33:41;;;;;;;4.90;2.65;;;486.50;1152.00;;;;;;5022504;28;20497;-78
2022/04/05 11:36:14;;;;;;;6.90;2.78;;;486.80;1126.40;;;;;;5004906;28;20021;-85
2022/04/05 11:38:47;;;;;;;6.07;3.33;;;486.80;1100.80;;;;;;5004317;28;20497;-84
2022/04/05 11:41:22;;;;;;;6.50;3.72;;;486.80;1075.20;;;;;;5019041;28;20038;-77
2022/04/05 11:43:59;;;;;;;6.28;4.00;;;486.90;1100.80;;;;;;4993390;28;20034;-78
2022/04/05 11:46:28;;;;;;;5.90;3.22;;;487.10;1126.40;;;;;;4993370;28;20023;-78
2022/04/05 11:48:56;;;;;;;8.40;3.85;;;487.00;1100.80;;;;;;4994711;28;20033;-77
2022/04/05 11:51:32;;;;;;;6.57;3.63;;;487.00;1100.80;;;;;;4994464;28;20065;-77
2022/04/05 11:54:05;;;;;;;7.72;3.60;;;487.10;1100.80;;;;;;4994140;28;20110;-78
2022/04/05 11:56:31;;;;;;;5.32;3.53;;;487.10;1075.20;;;;;;4994615;28;20479;-79
2022/04/05 11:58:59;;;;;;;6.05;3.25;;;487.30;1075.20;;;;;;4993653;28;20030;-78
2022/04/05 12:01:29;;;;;;;9.38;4.18;;;487.20;1075.20;;;;;;4993510;28;20074;-84
2022/04/05 12:04:00;;;;;;;6.57;4.00;;;487.10;1049.60;;;;;;4993210;28;20121;-77
2022/04/05 12:06:32;;;;;;;6.18;3.60;;;487.30;1075.20;;;;;;4993364;28;20091;-79
2022/04/05 12:09:01;;;;;;;8.18;3.83;;;487.30;1049.60;;;;;;5006705;28;20026;-78
2022/04/05 12:11:30;;;;;;;5.10;3.22;;;487.30;1075.20;;;;;;5004214;28;20029;-78
2022/04/05 12:14:01;;;;;;;4.65;3.10;;;512.00;1049.60;;;;;;5002550;28;20545;-80
2022/04/05 12:16:28;;;;;;;5.97;3.70;;;512.00;1049.60;;;;;;5011419;28;20084;-77
2022/04/05 12:18:56;;;;;;;6.57;3.40;;;512.00;1049.60;;;;;;5025998;28;20025;-79
2022/04/05 12:21:24;;;;;;;7.72;3.63;;;512.10;1049.60;;;;;;5012219;28;20406;-78
2022/04/05 12:23:51;;;;;;;7.20;3.55;;;512.10;1049.60;;;;;;5010844;28;20109;-75
2022/04/05 12:26:23;;;;;;;5.85;3.58;;;512.20;1049.60;;;;;;4993445;28;20528;-75
2022/04/05 12:28:57;;;;;;;7.65;3.90;;;512.30;1049.60;;;;;;5011967;28;20406;-75